Murphy, North Carolina
Current Conditions -  °F | °C
As of 11:20 PM on Sunday 23 Nov 2014 (Local Time) from KRHP Reporting Station
Drizzle Drizzle  
Wind Chill: 58°   Ceiling: 2800
Heat Index: 58°   Visibility: 10mi
Dew Point: 53°   Wind: 8mph
Humidity: 84%   Direction: 250°WSW
Pressure: 29.69"   Gusts: 17mph
Location:  35.09°N, 84.03°W
Report Text: KRHP 240420Z AUTO 25007G15KT 10SM -DZ OVC028 15/12 A2969 RMK AO2 T01460119
Loading
Personal Weather Stations






























Interactive Weather Map New forecast layout! Learn more

10-Day Weather Forecast

Advertisements
Track Severe Weather on mobile